sensor_id;sensor_type;location;lat;lon;timestamp;pressure;altitude;pressure_sealevel;temperature;humidity
75455;BME280;64035;48.358;2.122;2023-03-01T00:00:51;101745.56;;;2.63;52.22
75455;BME280;64035;48.358;2.122;2023-03-01T00:01:55;101750.28;;;2.60;52.86
75455;BME280;64035;48.358;2.122;2023-03-01T00:02:58;101750.91;;;2.58;53.28
75455;BME280;64035;48.358;2.122;2023-03-01T00:04:00;101744.22;;;2.58;53.18
75455;BME280;64035;48.358;2.122;2023-03-01T00:05:04;101751.06;;;2.59;54.21
75455;BME280;64035;48.358;2.122;2023-03-01T00:06:07;101755.34;;;2.60;53.65
75455;BME280;64035;48.358;2.122;2023-03-01T00:07:10;101741.97;;;2.61;53.55
75455;BME280;64035;48.358;2.122;2023-03-01T00:08:13;101742.44;;;2.57;53.01
75455;BME280;64035;48.358;2.122;2023-03-01T00:09:17;101750.00;;;2.57;53.28
75455;BME280;64035;48.358;2.122;2023-03-01T00:10:19;101749.28;;;2.58;53.40
75455;BME280;64035;48.358;2.122;2023-03-01T00:11:26;101743.31;;;2.58;53.63
75455;BME280;64035;48.358;2.122;2023-03-01T00:12:29;101742.88;;;2.62;53.50
75455;BME280;64035;48.358;2.122;2023-03-01T00:13:34;101743.47;;;2.59;53.53
75455;BME280;64035;48.358;2.122;2023-03-01T00:14:37;101750.16;;;2.59;53.17
75455;BME280;64035;48.358;2.122;2023-03-01T00:15:41;101751.47;;;2.55;53.12
75455;BME280;64035;48.358;2.122;2023-03-01T00:16:45;101746.09;;;2.52;52.96
75455;BME280;64035;48.358;2.122;2023-03-01T00:17:48;101752.81;;;2.52;53.37
75455;BME280;64035;48.358;2.122;2023-03-01T00:18:51;101747.59;;;2.50;53.78
75455;BME280;64035;48.358;2.122;2023-03-01T00:19:56;101747.44;;;2.49;53.64
75455;BME280;64035;48.358;2.122;2023-03-01T00:20:59;101744.91;;;2.49;53.39
75455;BME280;64035;48.358;2.122;2023-03-01T00:22:02;101741.81;;;2.51;54.42
75455;BME280;64035;48.358;2.122;2023-03-01T00:23:05;101744.03;;;2.48;53.45
75455;BME280;64035;48.358;2.122;2023-03-01T00:24:08;101744.75;;;2.47;54.01
75455;BME280;64035;48.358;2.122;2023-03-01T00:25:11;101746.22;;;2.45;53.15
75455;BME280;64035;48.358;2.122;2023-03-01T00:26:14;101745.03;;;2.42;53.61
75455;BME280;64035;48.358;2.122;2023-03-01T00:27:18;101744.13;;;2.41;53.44
75455;BME280;64035;48.358;2.122;2023-03-01T00:28:21;101751.00;;;2.42;54.31
75455;BME280;64035;48.358;2.122;2023-03-01T00:29:25;101740.56;;;2.39;53.75
75455;BME280;64035;48.358;2.122;2023-03-01T00:30:28;101750.66;;;2.39;54.48
75455;BME280;64035;48.358;2.122;2023-03-01T00:31:32;101747.25;;;2.39;54.53
75455;BME280;64035;48.358;2.122;2023-03-01T00:32:35;101745.59;;;2.39;54.14
75455;BME280;64035;48.358;2.122;2023-03-01T00:33:39;101745.59;;;2.39;54.15
75455;BME280;64035;48.358;2.122;2023-03-01T00:34:42;101744.59;;;2.37;54.76
75455;BME280;64035;48.358;2.122;2023-03-01T00:35:45;101745.31;;;2.36;53.98
75455;BME280;64035;48.358;2.122;2023-03-01T00:36:48;101742.31;;;2.31;54.27
75455;BME280;64035;48.358;2.122;2023-03-01T00:37:51;101742.47;;;2.33;54.05
75455;BME280;64035;48.358;2.122;2023-03-01T00:39:00;101746.47;;;2.31;53.74
75455;BME280;64035;48.358;2.122;2023-03-01T00:40:04;101740.56;;;2.30;54.48
75455;BME280;64035;48.358;2.122;2023-03-01T00:41:12;101753.91;;;2.29;54.64
75455;BME280;64035;48.358;2.122;2023-03-01T00:42:16;101748.69;;;2.28;54.74
75455;BME280;64035;48.358;2.122;2023-03-01T00:43:19;101748.88;;;2.29;54.95
75455;BME280;64035;48.358;2.122;2023-03-01T00:44:22;101744.53;;;2.28;54.80
75455;BME280;64035;48.358;2.122;2023-03-01T00:45:27;101748.88;;;2.29;54.48
75455;BME280;64035;48.358;2.122;2023-03-01T00:46:30;101752.41;;;2.31;55.13
75455;BME280;64035;48.358;2.122;2023-03-01T00:47:33;101750.66;;;2.30;54.82
75455;BME280;64035;48.358;2.122;2023-03-01T00:48:37;101754.47;;;2.27;54.50
75455;BME280;64035;48.358;2.122;2023-03-01T00:49:40;101765.22;;;2.33;54.09
75455;BME280;64035;48.358;2.122;2023-03-01T00:50:43;101752.13;;;2.28;54.37
75455;BME280;64035;48.358;2.122;2023-03-01T00:51:46;101753.03;;;2.29;54.62
75455;BME280;64035;48.358;2.122;2023-03-01T00:52:53;101751.22;;;2.28;55.04
75455;BME280;64035;48.358;2.122;2023-03-01T00:53:59;101751.06;;;2.26;54.73
75455;BME280;64035;48.358;2.122;2023-03-01T00:55:03;101745.28;;;2.27;54.28
75455;BME280;64035;48.358;2.122;2023-03-01T00:56:09;101756.13;;;2.26;53.89
75455;BME280;64035;48.358;2.122;2023-03-01T00:57:12;101752.53;;;2.24;54.14
75455;BME280;64035;48.358;2.122;2023-03-01T00:58:15;101755.06;;;2.24;54.43
75455;BME280;64035;48.358;2.122;2023-03-01T00:59:18;101753.13;;;2.22;54.83
75455;BME280;64035;48.358;2.122;2023-03-01T01:00:21;101758.03;;;2.20;54.91
75455;BME280;64035;48.358;2.122;2023-03-01T01:01:28;101762.75;;;2.17;54.32
75455;BME280;64035;48.358;2.122;2023-03-01T01:02:34;101762.44;;;2.14;54.13
75455;BME280;64035;48.358;2.122;2023-03-01T01:03:38;101760.50;;;2.12;54.56
75455;BME280;64035;48.358;2.122;2023-03-01T01:04:41;101759.31;;;2.08;54.83
75455;BME280;64035;48.358;2.122;2023-03-01T01:05:43;101750.66;;;2.06;54.07
75455;BME280;64035;48.358;2.122;2023-03-01T01:06:46;101753.50;;;2.09;54.96
75455;BME280;64035;48.358;2.122;2023-03-01T01:07:49;101754.09;;;2.07;54.53
75455;BME280;64035;48.358;2.122;2023-03-01T01:08:54;101749.34;;;2.10;54.43
75455;BME280;64035;48.358;2.122;2023-03-01T01:09:57;101747.41;;;2.07;54.66
75455;BME280;64035;48.358;2.122;2023-03-01T01:11:00;101759.03;;;2.14;54.60
75455;BME280;64035;48.358;2.122;2023-03-01T01:12:05;101757.41;;;2.14;54.92
75455;BME280;64035;48.358;2.122;2023-03-01T01:13:08;101762.44;;;2.14;54.71
75455;BME280;64035;48.358;2.122;2023-03-01T01:14:11;101758.59;;;2.18;54.91
75455;BME280;64035;48.358;2.122;2023-03-01T01:15:15;101765.44;;;2.19;54.69
75455;BME280;64035;48.358;2.122;2023-03-01T01:16:21;101762.75;;;2.17;54.69
75455;BME280;64035;48.358;2.122;2023-03-01T01:17:25;101757.56;;;2.16;54.76
75455;BME280;64035;48.358;2.122;2023-03-01T01:18:28;101752.19;;;2.13;54.14
75455;BME280;64035;48.358;2.122;2023-03-01T01:19:30;101753.19;;;2.06;55.06
75455;BME280;64035;48.358;2.122;2023-03-01T01:20:35;101757.34;;;2.06;54.41
75455;BME280;64035;48.358;2.122;2023-03-01T01:21:38;101758.09;;;2.05;55.47
75455;BME280;64035;48.358;2.122;2023-03-01T01:22:41;101752.88;;;2.03;55.12
75455;BME280;64035;48.358;2.122;2023-03-01T01:23:45;101756.00;;;2.01;55.36
75455;BME280;64035;48.358;2.122;2023-03-01T01:24:48;101751.50;;;1.98;54.58
75455;BME280;64035;48.358;2.122;2023-03-01T01:25:51;101747.78;;;1.94;55.38
75455;BME280;64035;48.358;2.122;2023-03-01T01:26:55;101752.97;;;1.96;55.36
75455;BME280;64035;48.358;2.122;2023-03-01T01:27:58;101751.19;;;1.95;55.20
75455;BME280;64035;48.358;2.122;2023-03-01T01:29:02;101742.41;;;1.91;54.91
75455;BME280;64035;48.358;2.122;2023-03-01T01:30:06;101742.97;;;1.89;55.18
75455;BME280;64035;48.358;2.122;2023-03-01T01:31:10;101749.66;;;1.88;55.35
75455;BME280;64035;48.358;2.122;2023-03-01T01:32:13;101739.28;;;1.85;55.42
75455;BME280;64035;48.358;2.122;2023-03-01T01:33:17;101733.50;;;1.86;55.17
75455;BME280;64035;48.358;2.122;2023-03-01T01:34:21;101736.75;;;1.85;55.87
75455;BME280;64035;48.358;2.122;2023-03-01T01:35:24;101741.78;;;1.85;55.85
75455;BME280;64035;48.358;2.122;2023-03-01T01:36:27;101734.22;;;1.85;55.61
75455;BME280;64035;48.358;2.122;2023-03-01T01:37:31;101736.41;;;1.82;55.97
75455;BME280;64035;48.358;2.122;2023-03-01T01:38:35;101745.34;;;1.87;55.54
75455;BME280;64035;48.358;2.122;2023-03-01T01:39:38;101742.69;;;1.86;55.94
75455;BME280;64035;48.358;2.122;2023-03-01T01:40:45;101735.25;;;1.87;55.96
75455;BME280;64035;48.358;2.122;2023-03-01T01:41:49;101730.78;;;1.85;55.90
75455;BME280;64035;48.358;2.122;2023-03-01T01:42:52;101729.00;;;1.84;56.16
75455;BME280;64035;48.358;2.122;2023-03-01T01:45:33;101733.50;;;1.86;56.02
75455;BME280;64035;48.358;2.122;2023-03-01T01:46:38;101729.91;;;1.84;55.89
75455;BME280;64035;48.358;2.122;2023-03-01T01:47:43;101730.63;;;1.83;55.64
75455;BME280;64035;48.358;2.122;2023-03-01T01:48:50;101727.66;;;1.79;55.64
75455;BME280;64035;48.358;2.122;2023-03-01T01:49:55;101724.22;;;1.78;55.54
75455;BME280;64035;48.358;2.122;2023-03-01T01:51:00;101732.53;;;1.77;55.73
75455;BME280;64035;48.358;2.122;2023-03-01T01:52:08;101735.06;;;1.77;55.68
75455;BME280;64035;48.358;2.122;2023-03-01T01:53:17;101731.31;;;1.74;56.60
75455;BME280;64035;48.358;2.122;2023-03-01T01:54:25;101728.66;;;1.72;56.56
75455;BME280;64035;48.358;2.122;2023-03-01T01:55:31;101728.47;;;1.71;56.00
75455;BME280;64035;48.358;2.122;2023-03-01T01:56:34;101727.41;;;1.69;55.58
75455;BME280;64035;48.358;2.122;2023-03-01T01:57:45;101731.28;;;1.65;55.74
75455;BME280;64035;48.358;2.122;2023-03-01T01:58:49;101723.84;;;1.67;56.38
75455;BME280;64035;48.358;2.122;2023-03-01T01:59:56;101722.38;;;1.69;57.12
75455;BME280;64035;48.358;2.122;2023-03-01T02:01:01;101721.47;;;1.68;56.21
75455;BME280;64035;48.358;2.122;2023-03-01T02:02:05;101720.91;;;1.71;56.08
75455;BME280;64035;48.358;2.122;2023-03-01T02:03:10;101730.28;;;1.72;55.66
75455;BME280;64035;48.358;2.122;2023-03-01T02:04:14;101717.66;;;1.72;55.62
75455;BME280;64035;48.358;2.122;2023-03-01T02:05:24;101717.50;;;1.70;55.58
75455;BME280;64035;48.358;2.122;2023-03-01T02:06:34;101728.66;;;1.72;56.13
75455;BME280;64035;48.358;2.122;2023-03-01T02:07:39;101721.81;;;1.71;56.31
75455;BME280;64035;48.358;2.122;2023-03-01T02:08:45;101721.63;;;1.70;55.98
75455;BME280;64035;48.358;2.122;2023-03-01T02:09:51;101716.44;;;1.68;55.72
75455;BME280;64035;48.358;2.122;2023-03-01T02:10:56;101718.78;;;1.67;55.83
75455;BME280;64035;48.358;2.122;2023-03-01T02:11:59;101718.50;;;1.64;56.17
75455;BME280;64035;48.358;2.122;2023-03-01T02:13:04;101707.50;;;1.63;56.30
75455;BME280;64035;48.358;2.122;2023-03-01T02:14:07;101706.94;;;1.66;56.51
75455;BME280;64035;48.358;2.122;2023-03-01T02:15:10;101706.03;;;1.65;55.99
75455;BME280;64035;48.358;2.122;2023-03-01T02:16:14;101708.41;;;1.64;56.41
75455;BME280;64035;48.358;2.122;2023-03-01T02:17:18;101702.75;;;1.66;55.94
75455;BME280;64035;48.358;2.122;2023-03-01T02:18:23;101699.50;;;1.67;56.43
75455;BME280;64035;48.358;2.122;2023-03-01T02:22:30;101700.56;;;1.69;55.97
75455;BME280;64035;48.358;2.122;2023-03-01T02:23:35;101701.72;;;1.64;56.12
75455;BME280;64035;48.358;2.122;2023-03-01T02:27:09;101702.28;;;1.62;55.94
75455;BME280;64035;48.358;2.122;2023-03-01T02:29:18;101699.13;;;1.55;57.13
75455;BME280;64035;48.358;2.122;2023-03-01T02:30:24;101694.09;;;1.55;56.42
75455;BME280;64035;48.358;2.122;2023-03-01T02:31:27;101694.81;;;1.54;56.74
75455;BME280;64035;48.358;2.122;2023-03-01T02:32:48;101689.31;;;1.50;56.50
75455;BME280;64035;48.358;2.122;2023-03-01T02:33:52;101690.03;;;1.49;56.23
75455;BME280;64035;48.358;2.122;2023-03-01T02:34:56;101692.88;;;1.52;56.85
75455;BME280;64035;48.358;2.122;2023-03-01T02:35:59;101687.97;;;1.53;56.43
75455;BME280;64035;48.358;2.122;2023-03-01T02:37:13;101687.97;;;1.53;56.86
75455;BME280;64035;48.358;2.122;2023-03-01T02:38:23;101686.78;;;1.50;57.24
75455;BME280;64035;48.358;2.122;2023-03-01T02:39:37;101687.81;;;1.52;56.92
75455;BME280;64035;48.358;2.122;2023-03-01T02:40:45;101687.53;;;1.49;56.32
75455;BME280;64035;48.358;2.122;2023-03-01T02:41:51;101686.06;;;1.51;56.95
75455;BME280;64035;48.358;2.122;2023-03-01T02:42:57;101680.25;;;1.52;56.88
75455;BME280;64035;48.358;2.122;2023-03-01T02:44:03;101669.69;;;1.47;56.32
75455;BME280;64035;48.358;2.122;2023-03-01T02:45:07;101672.94;;;1.46;56.72
75455;BME280;64035;48.358;2.122;2023-03-01T02:46:19;101676.38;;;1.47;56.88
75455;BME280;64035;48.358;2.122;2023-03-01T02:47:23;101671.31;;;1.47;57.27
75455;BME280;64035;48.358;2.122;2023-03-01T02:48:25;101676.81;;;1.43;56.71
75455;BME280;64035;48.358;2.122;2023-03-01T02:49:32;101680.50;;;1.46;56.89
75455;BME280;64035;48.358;2.122;2023-03-01T02:51:03;101669.38;;;1.44;56.87
75455;BME280;64035;48.358;2.122;2023-03-01T02:53:55;101671.75;;;1.43;56.99
75455;BME280;64035;48.358;2.122;2023-03-01T02:55:03;101676.94;;;1.44;57.07
75455;BME280;64035;48.358;2.122;2023-03-01T02:56:07;101676.81;;;1.43;56.95
75455;BME280;64035;48.358;2.122;2023-03-01T02:57:17;101670.88;;;1.42;57.13
75455;BME280;64035;48.358;2.122;2023-03-01T02:58:20;101675.91;;;1.42;56.91
75455;BME280;64035;48.358;2.122;2023-03-01T02:59:28;101668.91;;;1.40;56.93
75455;BME280;64035;48.358;2.122;2023-03-01T03:00:36;101660.88;;;1.35;57.02
75455;BME280;64035;48.358;2.122;2023-03-01T03:01:42;101666.94;;;1.37;56.53
75455;BME280;64035;48.358;2.122;2023-03-01T03:02:50;101664.13;;;1.34;57.46
75455;BME280;64035;48.358;2.122;2023-03-01T03:04:00;101665.31;;;1.38;57.28
75455;BME280;64035;48.358;2.122;2023-03-01T03:05:12;101664.28;;;1.36;57.70
75455;BME280;64035;48.358;2.122;2023-03-01T03:06:16;101670.06;;;1.35;57.46
75455;BME280;64035;48.358;2.122;2023-03-01T03:07:19;101665.91;;;1.35;56.78
75455;BME280;64035;48.358;2.122;2023-03-01T03:08:22;101665.75;;;1.34;57.40
75455;BME280;64035;48.358;2.122;2023-03-01T03:09:27;101664.13;;;1.34;56.67
75455;BME280;64035;48.358;2.122;2023-03-01T03:10:36;101670.06;;;1.35;56.79
75455;BME280;64035;48.358;2.122;2023-03-01T03:11:40;101677.31;;;1.32;57.85
75455;BME280;64035;48.358;2.122;2023-03-01T03:12:44;101678.94;;;1.31;56.78
75455;BME280;64035;48.358;2.122;2023-03-01T03:13:47;101675.50;;;1.31;57.10
75455;BME280;64035;48.358;2.122;2023-03-01T03:14:51;101676.28;;;1.30;56.81
75455;BME280;64035;48.358;2.122;2023-03-01T03:15:55;101668.69;;;1.30;57.63
75455;BME280;64035;48.358;2.122;2023-03-01T03:16:58;101674.47;;;1.29;57.36
75455;BME280;64035;48.358;2.122;2023-03-01T03:18:05;101674.31;;;1.27;57.67
75455;BME280;64035;48.358;2.122;2023-03-01T03:19:09;101673.09;;;1.24;56.78
75455;BME280;64035;48.358;2.122;2023-03-01T03:20:13;101672.34;;;1.25;57.74
75455;BME280;64035;48.358;2.122;2023-03-01T03:21:21;101664.63;;;1.23;57.87
75455;BME280;64035;48.358;2.122;2023-03-01T03:22:24;101674.56;;;1.22;57.05
75455;BME280;64035;48.358;2.122;2023-03-01T03:23:27;101670.44;;;1.22;57.88
75455;BME280;64035;48.358;2.122;2023-03-01T03:24:32;101661.06;;;1.21;57.56
75455;BME280;64035;48.358;2.122;2023-03-01T03:25:40;101672.78;;;1.21;56.62
75455;BME280;64035;48.358;2.122;2023-03-01T03:26:44;101672.63;;;1.19;56.79
75455;BME280;64035;48.358;2.122;2023-03-01T03:27:48;101671.88;;;1.20;57.71
75455;BME280;64035;48.358;2.122;2023-03-01T03:28:51;101669.94;;;1.17;57.97
75455;BME280;64035;48.358;2.122;2023-03-01T03:29:54;101668.88;;;1.15;58.07
75455;BME280;64035;48.358;2.122;2023-03-01T03:30:58;101665.47;;;1.15;57.07
75455;BME280;64035;48.358;2.122;2023-03-01T03:32:00;101668.88;;;1.15;58.30
75455;BME280;64035;48.358;2.122;2023-03-01T03:33:03;101666.03;;;1.12;57.93
75455;BME280;64035;48.358;2.122;2023-03-01T03:34:07;101666.78;;;1.11;58.20
75455;BME280;64035;48.358;2.122;2023-03-01T03:35:10;101671.66;;;1.10;57.54
75455;BME280;64035;48.358;2.122;2023-03-01T03:36:21;101661.56;;;1.10;57.83
75455;BME280;64035;48.358;2.122;2023-03-01T03:37:24;101671.66;;;1.10;57.24
75455;BME280;64035;48.358;2.122;2023-03-01T03:38:46;101668.22;;;1.09;57.86
75455;BME280;64035;48.358;2.122;2023-03-01T03:39:49;101662.00;;;1.06;57.81
75455;BME280;64035;48.358;2.122;2023-03-01T03:41:03;101662.00;;;1.06;58.60
75455;BME280;64035;48.358;2.122;2023-03-01T03:42:07;101662.53;;;1.03;58.03
75455;BME280;64035;48.358;2.122;2023-03-01T03:43:13;101661.81;;;1.04;58.05
75455;BME280;64035;48.358;2.122;2023-03-01T03:44:17;101659.84;;;1.02;57.73
75455;BME280;64035;48.358;2.122;2023-03-01T03:45:20;101655.56;;;1.01;57.80
75455;BME280;64035;48.358;2.122;2023-03-01T03:46:23;101665.06;;;1.03;58.08
75455;BME280;64035;48.358;2.122;2023-03-01T03:47:26;101660.75;;;1.02;58.11
75455;BME280;64035;48.358;2.122;2023-03-01T03:48:28;101656.13;;;0.98;57.63
75455;BME280;64035;48.358;2.122;2023-03-01T03:49:31;101661.47;;;1.01;57.63
75455;BME280;64035;48.358;2.122;2023-03-01T03:50:34;101655.06;;;0.96;57.98
75455;BME280;64035;48.358;2.122;2023-03-01T03:51:37;101664.25;;;0.96;58.27
75455;BME280;64035;48.358;2.122;2023-03-01T03:52:40;101659.81;;;0.93;58.93
75455;BME280;64035;48.358;2.122;2023-03-01T03:53:44;101667.19;;;0.92;58.30
75455;BME280;64035;48.358;2.122;2023-03-01T03:54:47;101661.28;;;0.91;58.41
75455;BME280;64035;48.358;2.122;2023-03-01T03:55:50;101662.88;;;0.91;58.90
75455;BME280;64035;48.358;2.122;2023-03-01T03:56:54;101658.03;;;0.92;58.16
75455;BME280;64035;48.358;2.122;2023-03-01T03:57:58;101665.97;;;0.88;58.11
75455;BME280;64035;48.358;2.122;2023-03-01T03:59:04;101667.03;;;0.90;58.89
75455;BME280;64035;48.358;2.122;2023-03-01T04:00:11;101667.59;;;0.88;58.79
75455;BME280;64035;48.358;2.122;2023-03-01T04:01:18;101673.69;;;0.90;58.28
75455;BME280;64035;48.358;2.122;2023-03-01T04:02:21;101667.75;;;0.89;58.58
75455;BME280;64035;48.358;2.122;2023-03-01T04:03:26;101668.91;;;0.84;58.38
75455;BME280;64035;48.358;2.122;2023-03-01T04:04:30;101669.66;;;0.83;58.30
75455;BME280;64035;48.358;2.122;2023-03-01T04:05:33;101666.22;;;0.83;59.19
75455;BME280;64035;48.358;2.122;2023-03-01T04:06:36;101677.19;;;0.83;59.31
75455;BME280;64035;48.358;2.122;2023-03-01T04:07:40;101672.72;;;0.81;58.63
75455;BME280;64035;48.358;2.122;2023-03-01T04:08:43;101671.09;;;0.81;58.86
75455;BME280;64035;48.358;2.122;2023-03-01T04:09:46;101665.88;;;0.79;58.60
75455;BME280;64035;48.358;2.122;2023-03-01T04:10:52;101665.03;;;0.79;58.99
75455;BME280;64035;48.358;2.122;2023-03-01T04:11:59;101665.59;;;0.76;59.04
75455;BME280;64035;48.358;2.122;2023-03-01T04:13:02;101663.38;;;0.79;59.10
75455;BME280;64035;48.358;2.122;2023-03-01T04:14:05;101661.59;;;0.78;58.39
75455;BME280;64035;48.358;2.122;2023-03-01T04:15:10;101668.09;;;0.76;58.91
75455;BME280;64035;48.358;2.122;2023-03-01T04:16:16;101668.81;;;0.75;58.85
75455;BME280;64035;48.358;2.122;2023-03-01T04:17:20;101669.16;;;0.78;59.19
75455;BME280;64035;48.358;2.122;2023-03-01T04:18:23;101658.75;;;0.75;59.21
75455;BME280;64035;48.358;2.122;2023-03-01T04:19:27;101655.16;;;0.73;58.82
75455;BME280;64035;48.358;2.122;2023-03-01T04:20:32;101653.72;;;0.75;59.35
75455;BME280;64035;48.358;2.122;2023-03-01T04:21:37;101663.06;;;0.76;59.06
75455;BME280;64035;48.358;2.122;2023-03-01T04:22:40;101669.72;;;0.76;58.94
75455;BME280;64035;48.358;2.122;2023-03-01T04:23:43;101658.03;;;0.76;59.48
75455;BME280;64035;48.358;2.122;2023-03-01T04:24:46;101648.50;;;0.74;58.49
75455;BME280;64035;48.358;2.122;2023-03-01T04:26:57;101661.09;;;0.74;60.44
75455;BME280;64035;48.358;2.122;2023-03-01T04:28:00;101666.13;;;0.74;58.65
75455;BME280;64035;48.358;2.122;2023-03-01T04:29:03;101652.81;;;0.75;58.83
75455;BME280;64035;48.358;2.122;2023-03-01T04:30:08;101657.69;;;0.73;59.32
75455;BME280;64035;48.358;2.122;2023-03-01T04:31:14;101656.78;;;0.73;58.85
75455;BME280;64035;48.358;2.122;2023-03-01T04:32:19;101653.53;;;0.74;58.93
75455;BME280;64035;48.358;2.122;2023-03-01T04:33:23;101655.16;;;0.73;58.92
75455;BME280;64035;48.358;2.122;2023-03-01T04:34:27;101642.56;;;0.73;59.36
75455;BME280;64035;48.358;2.122;2023-03-01T04:35:31;101643.63;;;0.75;59.40
75455;BME280;64035;48.358;2.122;2023-03-01T04:36:34;101652.50;;;0.72;59.13
75455;BME280;64035;48.358;2.122;2023-03-01T04:37:38;101649.22;;;0.73;59.37
75455;BME280;64035;48.358;2.122;2023-03-01T04:38:42;101646.56;;;0.71;59.26
75455;BME280;64035;48.358;2.122;2023-03-01T04:39:45;101643.72;;;0.68;59.80
75455;BME280;64035;48.358;2.122;2023-03-01T04:40:50;101645.34;;;0.68;59.70
75455;BME280;64035;48.358;2.122;2023-03-01T04:41:53;101637.63;;;0.66;59.07
75455;BME280;64035;48.358;2.122;2023-03-01T04:42:55;101647.56;;;0.65;59.64
75455;BME280;64035;48.358;2.122;2023-03-01T04:43:58;101641.44;;;0.63;59.14
75455;BME280;64035;48.358;2.122;2023-03-01T04:45:02;101642.34;;;0.63;59.76
75455;BME280;64035;48.358;2.122;2023-03-01T04:46:14;101642.91;;;0.61;59.77
75455;BME280;64035;48.358;2.122;2023-03-01T04:47:18;101634.44;;;0.60;60.05
75455;BME280;64035;48.358;2.122;2023-03-01T04:48:21;101636.97;;;0.60;59.47
75455;BME280;64035;48.358;2.122;2023-03-01T04:49:24;101637.88;;;0.61;59.97
75455;BME280;64035;48.358;2.122;2023-03-01T04:50:28;101635.19;;;0.59;59.54
75455;BME280;64035;48.358;2.122;2023-03-01T04:51:31;101631.94;;;0.60;59.75
75455;BME280;64035;48.358;2.122;2023-03-01T04:52:37;101638.59;;;0.60;60.77
75455;BME280;64035;48.358;2.122;2023-03-01T04:53:41;101638.59;;;0.60;61.06
75455;BME280;64035;48.358;2.122;2023-03-01T04:54:46;101638.75;;;0.61;60.50
75455;BME280;64035;48.358;2.122;2023-03-01T04:55:49;101636.81;;;0.59;59.76
75455;BME280;64035;48.358;2.122;2023-03-01T04:56:52;101635.91;;;0.58;59.67
75455;BME280;64035;48.358;2.122;2023-03-01T04:57:55;101633.81;;;0.54;59.91
75455;BME280;64035;48.358;2.122;2023-03-01T04:58:58;101642.81;;;0.52;60.04
75455;BME280;64035;48.358;2.122;2023-03-01T05:00:05;101633.63;;;0.53;59.95
75455;BME280;64035;48.358;2.122;2023-03-01T05:01:23;101629.00;;;0.49;59.81
75455;BME280;64035;48.358;2.122;2023-03-01T05:02:26;101638.38;;;0.50;60.51
75455;BME280;64035;48.358;2.122;2023-03-01T05:03:29;101631.69;;;0.50;60.60
75455;BME280;64035;48.358;2.122;2023-03-01T05:04:32;101630.47;;;0.47;60.44
75455;BME280;64035;48.358;2.122;2023-03-01T05:05:37;101630.81;;;0.50;60.70
75455;BME280;64035;48.358;2.122;2023-03-01T05:06:41;101624.53;;;0.46;60.07
75455;BME280;64035;48.358;2.122;2023-03-01T05:07:45;101626.16;;;0.46;60.25
75455;BME280;64035;48.358;2.122;2023-03-01T05:08:48;101627.78;;;0.45;61.08
75455;BME280;64035;48.358;2.122;2023-03-01T05:09:51;101632.81;;;0.45;61.06
75455;BME280;64035;48.358;2.122;2023-03-01T05:10:54;101630.13;;;0.44;60.89
75455;BME280;64035;48.358;2.122;2023-03-01T05:11:57;101628.38;;;0.43;60.84
75455;BME280;64035;48.358;2.122;2023-03-01T05:13:00;101622.25;;;0.41;60.95
75455;BME280;64035;48.358;2.122;2023-03-01T05:14:04;101619.41;;;0.37;61.00
75455;BME280;64035;48.358;2.122;2023-03-01T05:15:08;101634.69;;;0.39;60.67
75455;BME280;64035;48.358;2.122;2023-03-01T05:16:11;101623.25;;;0.34;61.41
75455;BME280;64035;48.358;2.122;2023-03-01T05:17:14;101626.66;;;0.34;61.50
75455;BME280;64035;48.358;2.122;2023-03-01T05:18:17;101629.00;;;0.33;60.59
75455;BME280;64035;48.358;2.122;2023-03-01T05:19:20;101628.81;;;0.31;61.74
75455;BME280;64035;48.358;2.122;2023-03-01T05:20:29;101626.31;;;0.31;60.93
75455;BME280;64035;48.358;2.122;2023-03-01T05:21:32;101634.59;;;0.30;61.14
75455;BME280;64035;48.358;2.122;2023-03-01T05:22:36;101638.91;;;0.31;61.47
75455;BME280;64035;48.358;2.122;2023-03-01T05:23:39;101629.25;;;0.27;61.52
75455;BME280;64035;48.358;2.122;2023-03-01T05:24:43;101625.25;;;0.29;61.11
75455;BME280;64035;48.358;2.122;2023-03-01T05:25:46;101626.00;;;0.28;62.08
75455;BME280;64035;48.358;2.122;2023-03-01T05:26:50;101632.78;;;0.29;62.02
75455;BME280;64035;48.358;2.122;2023-03-01T05:27:54;101632.06;;;0.30;61.30
75455;BME280;64035;48.358;2.122;2023-03-01T05:28:57;101628.53;;;0.28;61.21
75455;BME280;64035;48.358;2.122;2023-03-01T05:30:02;101631.34;;;0.31;61.32
75455;BME280;64035;48.358;2.122;2023-03-01T05:31:15;101627.38;;;0.33;61.44
75455;BME280;64035;48.358;2.122;2023-03-01T05:32:19;101626.66;;;0.34;61.44
75455;BME280;64035;48.358;2.122;2023-03-01T05:33:22;101626.81;;;0.36;61.21
75455;BME280;64035;48.358;2.122;2023-03-01T05:34:27;101628.44;;;0.35;60.68
75455;BME280;64035;48.358;2.122;2023-03-01T05:35:32;101617.63;;;0.36;61.14
75455;BME280;64035;48.358;2.122;2023-03-01T05:36:35;101616.41;;;0.33;60.41
75455;BME280;64035;48.358;2.122;2023-03-01T05:37:40;101629.34;;;0.36;61.59
75455;BME280;64035;48.358;2.122;2023-03-01T05:38:44;101627.53;;;0.35;61.42
75455;BME280;64035;48.358;2.122;2023-03-01T05:39:47;101624.84;;;0.33;60.83
75455;BME280;64035;48.358;2.122;2023-03-01T05:40:53;101622.16;;;0.32;60.97
75455;BME280;64035;48.358;2.122;2023-03-01T05:41:58;101624.84;;;0.33;61.51
75455;BME280;64035;48.358;2.122;2023-03-01T05:43:01;101624.34;;;0.29;61.07
75455;BME280;64035;48.358;2.122;2023-03-01T05:44:07;101627.63;;;0.28;61.07
75455;BME280;64035;48.358;2.122;2023-03-01T05:45:11;101623.13;;;0.25;61.23
75455;BME280;64035;48.358;2.122;2023-03-01T05:46:15;101620.88;;;0.20;61.54
75455;BME280;64035;48.358;2.122;2023-03-01T05:47:18;101619.97;;;0.19;62.11
75455;BME280;64035;48.358;2.122;2023-03-01T05:48:21;101624.28;;;0.20;62.73
75455;BME280;64035;48.358;2.122;2023-03-01T05:49:24;101621.91;;;0.22;62.18
75455;BME280;64035;48.358;2.122;2023-03-01T05:50:29;101625.31;;;0.22;61.44
75455;BME280;64035;48.358;2.122;2023-03-01T05:51:32;101619.97;;;0.19;61.99
75455;BME280;64035;48.358;2.122;2023-03-01T05:52:37;101624.41;;;0.22;62.22
75455;BME280;64035;48.358;2.122;2023-03-01T05:53:41;101616.88;;;0.22;61.98